NEODyS-2

Near Earth Objects - Dynamic Site
NEODyS ∴ Observatories ∴ Site 691 ∴ Obs & residuals
Contact »
691  ▹ 
OBSERVATIONS AND RESIDUALS

691-Steward Observatory, Kitt Peak-Spacewatch

Detections | Residuals | Detections & Residuals

[1-200] [201-400] [401-600] [601-800] [801-1000] [1001-1200] [1201-1400] [1401-1600] [1601-1800] [1801-2000] [2001-2200] [2201-2400] [2401-2600] [2601-2800] [2801-3000] [3001-3200] [3201-3400] [3401-3600] [3601-3800] [3801-4000] [4001-4200] [4201-4400] [4401-4600] [4601-4800] [4801-5000] [5001-5200] [5201-5400] [5401-5600] [5601-5800] [5801-6000] [6001-6200] [6201-6400] [6401-6600] [6601-6800] [6801-7000] [7001-7200] [7201-7400] [7401-7600] [7601-7800] [7801-8000] [8001-8200] [8201-8400] [8401-8600] [8601-8800] [8801-9000] [9001-9200] [9201-9400] [9401-9600] [9601-9800] [9801-10000] [10001-10200] [10201-10400] [10401-10600] [10601-10800] [10801-11000] [11001-11200] [11201-11400] [11401-11600] [11601-11800] [11801-12000] [12001-12200] [12201-12400] [12401-12600] [12601-12800] [12801-13000] [13001-13200] [13201-13400] [13401-13600] [13601-13800] [13801-14000] [14001-14200] [14201-14400] [14401-14600] [14601-14800] [14801-15000] [15001-15200] [15201-15400] [15401-15600] [15601-15800] [15801-16000] [16001-16200] [16201-16400] [16401-16600] [16601-16800] [16801-17000] [17001-17200] [17201-17400] [17401-17600] [17601-17800] [17801-18000] [18001-18200] [18201-18400] [18401-18600] [18601-18800] [18801-19000] [19001-19200] [19201-19400] [19401-19600] [19601-19800] [19801-20000] [20001-20200] [20201-20400] [20401-20600] [20601-20800] [20801-21000] [21001-21200] [21201-21400] [21401-21600] [21601-21800] [21801-22000] [22001-22200] [22201-22400] [22401-22600] [22601-22800] [22801-23000] [23001-23200] [23201-23400] [23401-23600] [23601-23800] [23801-24000] [24001-24200] [24201-24400] [24401-24600] [24601-24800] [24801-25000] [25001-25200] [25201-25400] [25401-25600] [25601-25800] [25801-26000] [26001-26200] [26201-26400] [26401-26600] [26601-26800] [26801-27000] [27001-27200] [27201-27400] [27401-27600] [27601-27800] [27801-28000] [28001-28200] [28201-28400] [28401-28600] [28601-28800] [28801-29000] [29001-29200] [29201-29400] [29401-29600] [29601-29800] [29801-30000] [30001-30200] [30201-30400] [30401-30600] [30601-30800] [30801-31000] [31001-31200] [31201-31400] [31401-31600] [31601-31800] [31801-32000] [32001-32200] [32201-32400] [32401-32600] [32601-32800] [32801-33000] [33001-33200] [33201-33400] [33401-33600] [33601-33800] [33801-34000] [34001-34200] [34201-34400] [34401-34600] [34601-34800] [34801-35000] [35001-35200] [35201-35400] [35401-35600] [35601-35800] [35801-36000] [36001-36200] [36201-36400] [36401-36600] [36601-36800] [36801-37000] [37001-37200] [37201-37400] [37401-37600] [37601-37800] [37801-38000] [38001-38200] [38201-38400] [38401-38600] [38601-38800] [38801-39000] [39001-39200] [39201-39400] [39401-39600] [39601-39800] [39801-40000] [40001-40200] [40201-40400] [40401-40600] [40601-40800] [40801-41000] [41001-41200] [41201-41400] [41401-41600] [41601-41800] [41801-42000] [42001-42200] [42201-42400] [42401-42600] [42601-42800] [42801-43000] [43001-43200] [43201-43400] [43401-43600] [43601-43800] [43801-44000] [44001-44200] [44201-44400] [44401-44600] [44601-44800] [44801-45000] [45001-45200] [45201-45400] [45401-45600] [45601-45800] [45801-46000] [46001-46200] [46201-46400] [46401-46600] [46601-46800] [46801-47000] [47001-47200] [47201-47400] [47401-47600] [47601-47800] [47801-48000] [48001-48200] [48201-48400] [48401-48600] [48601-48800] [48801-49000] [49001-49200] [49201-49400] [49401-49600] [49601-49800] [49801-50000] [50001-50200] [50201-50388]

Designation T Tech N Date Right Ascension Declination Apparent Magnitude Star Catalog Site code χ Used A Used M
yr-mo-day precision hr:min:sec precision rms F bias residual deg min sec precision rms F bias residual mag/col rms residual
2016AX147 O C 2016-01-27.31261 1.000E-05 07:29:42.970 1.500E-01 0.500 F -0.089 -0.038 +23° 20' 31.10" 1.000E-01 0.500 F 0.243 -0.137 20.0 V 0.70 -0.08 o 691 0.28 Yes Yes
2016BT O C H 2016-01-27.33570 1.000E-05 07:46:36.080 1.500E-01 0.500 F -0.152 -0.172 +30° 24' 18.20" 1.000E-01 0.500 F 0.181 -0.789 19.7 V 0.70 0.06 o 691 1.65 Yes Yes
2016BT O C H 2016-01-27.34148 1.000E-05 07:46:35.670 1.500E-01 0.500 F -0.152 0.394 +30° 24' 44.10" 1.000E-01 0.500 F 0.181 -1.714 o 691 3.45 No No
2016BT O C H 2016-01-27.34749 1.000E-05 07:46:35.150 1.500E-01 0.500 F -0.152 -0.240 +30° 25' 14.60" 1.000E-01 0.500 F 0.181 0.906 19.6 V 0.70 -0.04 o 691 1.91 Yes Yes
2015XJ261 O C 2016-01-28.20420 1.000E-05 07:49:16.190 1.500E-01 0.500 F 0.001 -0.085 +19° 29' 15.60" 1.000E-01 0.500 F 0.344 -0.005 19.3 V 0.70 -0.26 o 691 0.17 Yes Yes
2016AO193 O C H 2016-01-28.20420 1.000E-05 07:53:14.960 1.500E-01 0.500 F 0.006 -1.559 +19° 01' 16.90" 1.000E-01 0.500 F 0.318 -2.332 o 691 5.57 No No
2015XJ261 O C 2016-01-28.20917 1.000E-05 07:49:15.920 1.500E-01 0.500 F 0.001 -0.326 +19° 29' 25.00" 1.000E-01 0.500 F 0.344 -0.298 19.4 V 0.70 -0.16 o 691 0.89 Yes Yes
2016AO193 O C H 2016-01-28.20917 1.000E-05 07:53:14.140 1.500E-01 0.500 F 0.006 -0.447 +19° 01' 11.20" 1.000E-01 0.500 F 0.318 -0.747 o 691 1.75 Yes No
2015XJ261 O C 2016-01-28.21414 1.000E-05 07:49:15.670 1.500E-01 0.500 F 0.001 -0.279 +19° 29' 35.00" 1.000E-01 0.500 F 0.344 0.014 19.4 V 0.70 -0.16 o 691 0.56 Yes Yes
2016AO193 O C H 2016-01-28.21414 1.000E-05 07:53:13.380 1.500E-01 0.500 F 0.006 1.523 +19° 01' 03.70" 1.000E-01 0.500 F 0.318 -0.958 o 691 3.57 No No
2015YX7 O C H 2016-01-28.24714 1.000E-05 08:52:20.570 1.500E-01 0.500 F 0.124 -0.595 +12° 20' 25.60" 1.000E-01 0.500 F 0.266 0.437 20.8 V 0.70 0.03 o 691 1.52 Yes Yes
2015YX7 O C H 2016-01-28.25222 1.000E-05 08:52:20.250 1.500E-01 0.500 F 0.124 -0.446 +12° 20' 30.60" 1.000E-01 0.500 F 0.266 -0.202 20.9 V 0.70 0.13 o 691 1.00 Yes Yes
2015YX7 O C H 2016-01-28.25754 1.000E-05 08:52:19.930 1.500E-01 0.500 F 0.124 -0.059 +12° 20' 36.40" 1.000E-01 0.500 F 0.266 -0.302 20.9 V 0.70 0.13 o 691 0.63 Yes Yes
2016AF193 O C H 2016-01-29.25132 1.000E-05 09:14:48.030 1.500E-01 0.500 F 0.244 -0.101 -24° 04' 44.90" 1.000E-01 0.500 F -0.127 0.065 o 691 0.24 Yes No
2016AF193 O C H 2016-01-29.25641 1.000E-05 09:14:46.440 1.500E-01 0.500 F 0.244 0.881 -24° 04' 54.40" 1.000E-01 0.500 F -0.127 -0.585 o 691 2.14 Yes No
2016AF193 O C H 2016-01-29.26155 1.000E-05 09:14:44.740 1.500E-01 0.500 F 0.244 0.608 -24° 05' 03.40" 1.000E-01 0.500 F -0.127 -0.666 o 691 1.82 Yes No
2016AF65 O C H 2016-01-29.26539 1.000E-05 09:13:54.240 1.500E-01 0.500 F 0.082 0.175 +01° 22' 58.40" 1.000E-01 0.500 F 0.121 0.277 20.2 V 0.70 -0.09 o 691 0.66 Yes Yes
2016AF65 O C H 2016-01-29.27094 1.000E-05 09:13:53.530 1.500E-01 0.500 F 0.082 -0.037 +01° 22' 49.90" 1.000E-01 0.500 F 0.121 -0.079 20.3 V 0.70 0.01 o 691 0.17 Yes Yes
2016AF65 O C H 2016-01-29.27648 1.000E-05 09:13:52.820 1.500E-01 0.500 F 0.082 -0.252 +01° 22' 41.90" 1.000E-01 0.500 F 0.121 0.049 20.2 V 0.70 -0.09 o 691 0.52 Yes Yes
2001XT30 O C 2016-01-29.40832 1.000E-05 09:13:44.660 1.500E-01 0.500 F 0.037 -0.772 +14° 29' 28.60" 1.000E-01 0.500 F 0.250 -0.210 20.4 V 0.70 -0.69 o 691 1.60 Yes Yes
2001XT30 O C 2016-01-29.42724 1.000E-05 09:13:43.490 1.500E-01 0.500 F 0.037 -0.316 +14° 29' 36.60" 1.000E-01 0.500 F 0.250 0.247 20.7 V 0.70 -0.39 o 691 0.80 Yes Yes
2001XT30 O C 2016-01-29.44615 1.000E-05 09:13:42.300 1.500E-01 0.500 F 0.037 -0.185 +14° 29' 43.90" 1.000E-01 0.500 F 0.250 0.019 20.7 V 0.70 -0.39 o 691 0.37 Yes Yes
2016BZ14 O C 2016-01-30.12952 1.000E-05 04:32:35.960 1.500E-01 0.500 F -0.206 0.018 -19° 53' 18.20" 1.000E-01 0.500 F 0.057 -0.044 18.4 V 0.70 -0.27 o 691 0.10 Yes Yes
2016BZ14 O C 2016-01-30.13483 1.000E-05 04:32:35.260 1.500E-01 0.500 F -0.206 -0.390 -19° 52' 57.60" 1.000E-01 0.500 F 0.057 0.140 18.4 V 0.70 -0.27 o 691 0.84 Yes Yes
2016BZ14 O C 2016-01-30.14014 1.000E-05 04:32:34.610 1.500E-01 0.500 F -0.206 -0.093 -19° 52' 37.30" 1.000E-01 0.500 F 0.057 0.011 18.5 V 0.70 -0.17 o 691 0.20 Yes Yes
2016AO131 O C H 2016-01-30.25172 1.000E-05 10:38:53.650 1.500E-01 0.500 F 0.003 -0.464 +12° 40' 19.40" 1.000E-01 0.500 F 0.159 -0.378 20.6 V 0.70 -0.32 o 691 1.20 Yes Yes
2016AO131 O C H 2016-01-30.25704 1.000E-05 10:38:53.260 1.500E-01 0.500 F 0.003 -0.708 +12° 40' 35.30" 1.000E-01 0.500 F 0.159 0.789 20.9 V 0.70 -0.02 o 691 2.13 Yes Yes
2016AO131 O C H 2016-01-30.26236 1.000E-05 10:38:52.960 1.500E-01 0.500 F 0.003 0.422 +12° 40' 48.50" 1.000E-01 0.500 F 0.159 -0.731 20.9 V 0.70 -0.02 o 691 1.70 Yes Yes
1994UG O C H 2016-01-30.28642 1.000E-05 10:54:14.540 1.500E-01 0.500 F 0.204 -0.145 +29° 29' 13.00" 1.000E-01 0.500 F 0.235 0.021 19.8 V 0.70 -0.08 o 691 0.29 Yes Yes
1994UG O C H 2016-01-30.29356 1.000E-05 10:54:14.540 1.500E-01 0.500 F 0.204 -0.390 +29° 29' 20.70" 1.000E-01 0.500 F 0.235 -0.140 19.8 V 0.70 -0.08 o 691 0.83 Yes Yes
1994UG O C H 2016-01-30.30068 1.000E-05 10:54:14.570 1.500E-01 0.500 F 0.204 -0.202 +29° 29' 28.80" 1.000E-01 0.500 F 0.235 0.140 19.9 V 0.70 0.02 o 691 0.49 Yes Yes
2016AH193 O C H 2016-01-30.32399 1.000E-05 12:10:10.940 1.500E-01 0.500 F 0.202 0.892 +17° 26' 29.40" 1.000E-01 0.500 F 0.259 -1.210 o 691 3.03 Yes No
2016AH193 O C H 2016-01-30.32954 1.000E-05 12:10:09.050 1.500E-01 0.500 F 0.202 -0.455 +17° 26' 52.40" 1.000E-01 0.500 F 0.259 -0.250 o 691 1.04 Yes No
2016AH193 O C H 2016-01-30.33509 1.000E-05 12:10:07.230 1.500E-01 0.500 F 0.202 -0.782 +17° 27' 14.40" 1.000E-01 0.500 F 0.259 -0.283 o 691 1.67 Yes No
2008XO2 O C H 2016-01-30.36017 1.000E-05 11:04:42.640 1.500E-01 0.500 F 0.217 0.125 +30° 46' 32.80" 1.000E-01 0.500 F 0.272 -0.160 20.7 V 0.70 0.33 o 691 0.41 Yes Yes
2008XO2 O C H 2016-01-30.36570 1.000E-05 11:04:42.530 1.500E-01 0.500 F 0.217 0.164 +30° 46' 37.20" 1.000E-01 0.500 F 0.272 -0.348 20.7 V 0.70 0.33 o 691 0.77 Yes Yes
2008XO2 O C H 2016-01-30.37122 1.000E-05 11:04:42.410 1.500E-01 0.500 F 0.217 0.077 +30° 46' 42.20" 1.000E-01 0.500 F 0.272 0.078 20.8 V 0.70 0.43 o 691 0.22 Yes Yes
2016BC14 O C 2016-01-30.41094 1.000E-05 15:00:20.950 1.500E-01 0.500 F 0.083 -0.073 +16° 46' 06.90" 1.000E-01 0.500 F 0.246 0.386 19.9 V 0.70 -0.25 o 691 0.79 Yes Yes
2016BC14 O C 2016-01-30.41672 1.000E-05 15:00:21.330 1.500E-01 0.500 F 0.083 -0.361 +16° 46' 03.40" 1.000E-01 0.500 F 0.246 0.010 20.1 V 0.70 -0.05 o 691 0.72 Yes Yes
2016BC14 O C 2016-01-30.42250 1.000E-05 15:00:21.740 1.500E-01 0.500 F 0.083 -0.175 +16° 46' 00.20" 1.000E-01 0.500 F 0.246 -0.059 20.1 V 0.70 -0.05 o 691 0.37 Yes Yes
2016AZ8 O C 2016-01-30.44196 1.000E-05 12:37:14.300 1.500E-01 0.500 F 0.047 -0.364 +16° 22' 27.80" 1.000E-01 0.500 F 0.191 -0.003 20.1 V 0.70 -0.24 o 691 0.73 Yes Yes
2016AZ8 O C 2016-01-30.44751 1.000E-05 12:37:13.700 1.500E-01 0.500 F 0.047 0.029 +16° 22' 35.90" 1.000E-01 0.500 F 0.191 -0.570 19.8 V 0.70 -0.54 o 691 1.14 Yes Yes
2016AZ8 O C 2016-01-30.45305 1.000E-05 12:37:13.090 1.500E-01 0.500 F 0.047 0.270 +16° 22' 45.00" 1.000E-01 0.500 F 0.191 -0.112 20.2 V 0.70 -0.14 o 691 0.59 Yes Yes
2003UL12 O C 2016-01-30.54337 1.000E-05 14:33:53.160 1.500E-01 0.500 F 0.362 -0.465 -25° 04' 22.40" 1.000E-01 0.500 F 0.277 -0.046 19.5 V 0.70 -0.01 o 691 0.93 Yes Yes
2003UL12 O C 2016-01-30.54616 1.000E-05 14:33:53.460 1.500E-01 0.500 F 0.362 -0.162 -25° 04' 20.70" 1.000E-01 0.500 F 0.277 -0.074 19.5 V 0.70 -0.01 o 691 0.35 Yes Yes
2003UL12 O C 2016-01-30.54895 1.000E-05 14:33:53.720 1.500E-01 0.500 F 0.362 -0.401 -25° 04' 18.60" 1.000E-01 0.500 F 0.277 0.297 19.4 V 0.70 -0.11 o 691 1.00 Yes Yes
2010GE25 O C H 2016-01-30.55688 1.000E-05 10:58:39.670 1.500E-01 0.500 F 0.056 0.228 +16° 38' 33.10" 1.000E-01 0.500 F 0.201 -0.961 o 691 1.99 Yes No
2010GE25 O C H 2016-01-30.55918 1.000E-05 10:58:39.560 1.500E-01 0.500 F 0.056 -0.089 +16° 38' 27.10" 1.000E-01 0.500 F 0.201 -0.668 o 691 1.36 Yes No
2016BD39 O C H 2016-02-05.20674 1.000E-05 05:06:03.430 1.500E-01 0.500 F -0.222 0.829 -06° 37' 39.80" 1.000E-01 0.500 F 0.143 -0.225 o 691 1.73 Yes No
2016BD39 O C H 2016-02-05.20992 1.000E-05 05:06:02.840 1.500E-01 0.500 F -0.222 -0.617 -06° 37' 45.10" 1.000E-01 0.500 F 0.143 -0.669 o 691 1.84 Yes No
2016BD39 O C H 2016-02-05.21310 1.000E-05 05:06:02.240 1.500E-01 0.500 F -0.222 -2.214 -06° 37' 50.20" 1.000E-01 0.500 F 0.143 -0.914 o 691 4.74 No No
2016AO164 O C H 2016-02-05.22298 1.000E-05 04:24:40.410 1.500E-01 0.612 F -0.148 0.598 +01° 34' 42.20" 1.000E-01 0.612 F 0.448 -1.207 o 691 2.21 Yes No
2016AO164 O C H 2016-02-05.22616 1.000E-05 04:24:40.390 1.500E-01 0.612 F -0.148 0.360 +01° 34' 51.20" 1.000E-01 0.612 F 0.448 -0.533 o 691 1.05 Yes No
2016AO164 O C H 2016-02-05.22934 1.000E-05 04:24:40.340 1.500E-01 0.612 F -0.148 -0.335 +01° 34' 59.20" 1.000E-01 0.612 F 0.448 -0.859 o 691 1.51 Yes No
2016AO164 O C H 2016-02-05.26506 1.000E-05 04:24:40.370 1.500E-01 0.612 F -0.148 0.077 +01° 36' 33.30" 1.000E-01 0.612 F 0.448 -0.306 o 691 0.52 Yes No
2016AO164 O C H 2016-02-05.26847 1.000E-05 04:24:40.290 1.500E-01 0.612 F -0.148 -1.194 +01° 36' 40.40" 1.000E-01 0.612 F 0.448 -2.138 o 691 3.98 No No
2016AO164 O C H 2016-02-05.27188 1.000E-05 04:24:40.240 1.500E-01 0.612 F -0.148 -2.027 +01° 36' 49.30" 1.000E-01 0.612 F 0.448 -2.171 o 691 4.83 No No
2016CO29 O C H 2016-02-05.29798 1.000E-05 08:31:54.730 1.500E-01 0.500 F 0.043 0.140 +27° 17' 07.10" 1.000E-01 0.500 F 0.193 -0.235 o 691 0.55 Yes No
2016CO29 O C H 2016-02-05.30024 1.000E-05 08:31:53.880 1.500E-01 0.500 F 0.073 0.445 +27° 17' 18.10" 1.000E-01 0.500 F 0.227 -0.260 o 691 1.04 Yes No
2016CO29 O C H 2016-02-05.30249 1.000E-05 08:31:52.950 1.500E-01 0.500 F 0.073 -0.336 +27° 17' 29.10" 1.000E-01 0.500 F 0.227 -0.194 o 691 0.78 Yes No
2011HD63 O C 2016-02-05.31580 1.000E-05 09:20:39.180 1.500E-01 0.500 F 0.041 -139.114 +10° 22' 15.00" 1.000E-01 0.500 F 0.264 103.999 21.5 V 0.70 -5.20 o 691 136.01 No No
2011DU O C H 2016-02-05.31580 1.000E-05 09:18:29.740 1.500E-01 0.500 F 0.090 0.714 +09° 53' 56.30" 1.000E-01 0.500 F 0.229 -0.693 o 691 1.99 Yes No
2011HD63 O C 2016-02-05.31968 1.000E-05 09:20:38.920 1.500E-01 0.500 F 0.041 -139.051 +10° 22' 15.50" 1.000E-01 0.500 F 0.264 103.109 21.7 V 0.70 -5.00 o 691 134.32 No No
2011DU O C H 2016-02-05.31968 1.000E-05 09:18:29.090 1.500E-01 0.500 F 0.090 -0.434 +09° 53' 59.90" 1.000E-01 0.500 F 0.229 -0.137 o 691 0.91 Yes No
2011HD63 O C 2016-02-05.32355 1.000E-05 09:20:38.720 1.500E-01 0.500 F 0.041 -138.112 +10° 22' 15.80" 1.000E-01 0.500 F 0.264 102.024 21.4 V 0.70 -5.30 o 691 132.66 No No
2011DU O C H 2016-02-05.32355 1.000E-05 09:18:28.590 1.500E-01 0.500 F 0.090 0.614 +09° 54' 02.80" 1.000E-01 0.500 F 0.229 -0.272 o 691 1.35 Yes No
2000QN130 O C H 2016-02-05.36205 1.000E-05 09:59:59.080 1.500E-01 0.500 F -0.014 0.288 +15° 18' 41.30" 1.000E-01 0.500 F 0.347 -0.050 20.9 V 0.70 0.53 o 691 0.59 Yes Yes
2000QN130 O C H 2016-02-05.36592 1.000E-05 09:59:58.740 1.500E-01 0.500 F -0.014 -0.365 +15° 18' 43.00" 1.000E-01 0.500 F 0.347 -0.131 21.1 V 0.70 0.73 o 691 0.78 Yes Yes
2000QN130 O C H 2016-02-05.36980 1.000E-05 09:59:58.450 1.500E-01 0.500 F -0.014 -0.284 +15° 18' 45.10" 1.000E-01 0.500 F 0.347 0.184 20.9 V 0.70 0.53 o 691 0.68 Yes Yes
2016CV30 O C H 2016-02-05.37413 1.000E-05 10:03:45.280 1.500E-01 0.500 F 0.086 -0.279 +08° 40' 33.30" 1.000E-01 0.500 F 0.045 0.767 19.2 V 0.70 0.45 o 691 1.68 Yes Yes
2016CV30 O C H 2016-02-05.37592 1.000E-05 10:03:45.530 1.500E-01 0.500 F 0.086 -0.378 +08° 40' 50.20" 1.000E-01 0.500 F 0.045 -0.105 19.1 V 0.70 0.35 o 691 0.80 Yes Yes
2016CV30 O C H 2016-02-05.37771 1.000E-05 10:03:45.810 1.500E-01 0.500 F 0.086 -0.033 +08° 41' 08.80" 1.000E-01 0.500 F 0.045 0.723 19.1 V 0.70 0.35 o 691 1.49 Yes Yes
2016AZ8 O C H 2016-02-05.38491 1.000E-05 12:25:53.780 1.500E-01 0.500 F 0.138 0.370 +18° 53' 44.90" 1.000E-01 0.500 F 0.248 -0.058 o 691 0.75 Yes No
2016AZ8 O C H 2016-02-05.38808 1.000E-05 12:25:53.330 1.500E-01 0.500 F 0.138 0.209 +18° 53' 48.90" 1.000E-01 0.500 F 0.248 -0.851 o 691 1.76 Yes No
2016AZ8 O C H 2016-02-05.39127 1.000E-05 12:25:52.880 1.500E-01 0.500 F 0.138 0.093 +18° 53' 53.90" 1.000E-01 0.500 F 0.248 -0.672 o 691 1.36 Yes No
1999VF22 O C H 2016-02-05.43653 1.000E-05 12:50:54.360 1.500E-01 0.500 F 0.190 0.424 +07° 28' 46.00" 1.000E-01 0.500 F 0.194 -0.255 20.3 V 0.70 0.74 o 691 1.00 Yes Yes
1999VF22 O C H 2016-02-05.43863 1.000E-05 12:50:55.160 1.500E-01 0.500 F 0.190 -0.021 +07° 28' 44.60" 1.000E-01 0.500 F 0.194 -0.125 20.2 V 0.70 0.64 o 691 0.26 Yes Yes
1999VF22 O C H 2016-02-05.44074 1.000E-05 12:50:55.910 1.500E-01 0.500 F 0.190 -1.270 +07° 28' 42.80" 1.000E-01 0.500 F 0.194 -0.387 20.2 V 0.70 0.64 o 691 2.68 Yes Yes
2016AL8 O C H 2016-02-05.45754 1.000E-05 14:51:49.840 1.500E-01 0.500 F 0.291 -0.597 -13° 19' 06.20" 1.000E-01 0.500 F 0.093 -0.409 o 691 1.47 Yes No
2016AL8 O C H 2016-02-05.45979 1.000E-05 14:51:50.830 1.500E-01 0.500 F 0.291 0.528 -13° 19' 05.20" 1.000E-01 0.500 F 0.093 -0.194 o 691 1.14 Yes No
2016AL8 O C H 2016-02-05.46205 1.000E-05 14:51:51.760 1.500E-01 0.500 F 0.291 0.722 -13° 19' 04.40" 1.000E-01 0.500 F 0.093 -0.183 o 691 1.51 Yes No
2015BN509 O C H 2016-02-05.46653 1.000E-05 15:46:44.360 1.500E-01 0.500 F 0.109 -0.344 -04° 14' 56.50" 1.000E-01 0.500 F 0.119 -0.826 o 691 1.79 Yes No
2015BN509 O C H 2016-02-05.46833 1.000E-05 15:46:47.370 1.500E-01 0.500 F 0.109 -0.711 -04° 15' 02.20" 1.000E-01 0.500 F 0.119 -0.579 o 691 1.84 Yes No
2015BN509 O C H 2016-02-05.47012 1.000E-05 15:46:50.420 1.500E-01 0.500 F 0.109 -0.223 -04° 15' 08.00" 1.000E-01 0.500 F 0.119 -0.467 o 691 1.03 Yes No
2016BC14 O C H 2016-02-05.48217 1.000E-05 15:08:14.180 1.500E-01 0.500 F 0.082 0.201 +15° 42' 38.80" 1.000E-01 0.500 F 0.245 0.172 19.8 V 0.70 -0.11 o 691 0.53 Yes Yes
2016BC14 O C H 2016-02-05.48674 1.000E-05 15:08:14.450 1.500E-01 0.500 F 0.082 -0.024 +15° 42' 35.90" 1.000E-01 0.500 F 0.245 0.131 19.8 V 0.70 -0.11 o 691 0.27 Yes Yes
2016BC14 O C H 2016-02-05.49131 1.000E-05 15:08:14.730 1.500E-01 0.500 F 0.082 -0.088 +15° 42' 33.00" 1.000E-01 0.500 F 0.245 0.099 19.9 V 0.70 -0.01 o 691 0.27 Yes Yes
2016CA32 O C H 2016-02-05.53648 1.000E-05 15:20:45.990 1.500E-01 0.500 F 0.216 0.128 +19° 09' 38.00" 1.000E-01 0.500 F 0.229 -0.269 20.9 V 0.70 -0.12 o 691 0.60 Yes Yes
2016CA32 O C H 2016-02-05.54036 1.000E-05 15:20:45.780 1.500E-01 0.500 F 0.216 -0.333 +19° 09' 44.90" 1.000E-01 0.500 F 0.229 -0.194 21.1 V 0.70 0.08 o 691 0.78 Yes Yes
2016CA32 O C H 2016-02-05.54423 1.000E-05 15:20:45.610 1.500E-01 0.500 F 0.216 -0.233 +19° 09' 51.60" 1.000E-01 0.500 F 0.229 -0.298 21.1 V 0.70 0.08 o 691 0.76 Yes Yes
2016AM131 O C H 2016-02-06.14002 1.000E-05 04:02:01.760 1.500E-01 0.500 F -0.261 -0.375 -06° 29' 54.90" 1.000E-01 0.500 F 0.145 0.467 20.0 V 0.70 0.16 o 691 1.22 Yes Yes
2016AM131 O C H 2016-02-06.14251 1.000E-05 04:02:01.300 1.500E-01 0.500 F -0.261 0.389 -06° 29' 56.10" 1.000E-01 0.500 F 0.145 0.192 20.0 V 0.70 0.16 o 691 0.88 Yes Yes
2016AM131 O C H 2016-02-06.14499 1.000E-05 04:02:00.720 1.500E-01 0.500 F -0.261 -0.668 -06° 29' 57.30" 1.000E-01 0.500 F 0.145 -0.088 20.1 V 0.70 0.26 o 691 1.37 Yes Yes
2016CL32 O C H 2016-02-06.16403 1.000E-05 02:20:45.340 1.500E-01 0.500 F -0.214 -0.208 +09° 06' 23.50" 1.000E-01 0.500 F 0.240 -0.732 o 691 1.53 Yes No
2016CL32 O C H 2016-02-06.16628 1.000E-05 02:20:46.410 1.500E-01 0.500 F -0.214 1.999 +09° 06' 34.60" 1.000E-01 0.500 F 0.240 0.364 o 691 4.04 No No
2016CL32 O C H 2016-02-06.16854 1.000E-05 02:20:47.190 1.500E-01 0.500 F -0.214 -0.153 +09° 06' 42.70" 1.000E-01 0.500 F 0.240 -1.584 o 691 3.17 No No
2014FM7 O C 2016-02-06.18186 1.000E-05 03:31:42.840 1.500E-01 0.500 F -0.423 -0.456 +15° 45' 55.00" 1.000E-01 0.500 F 0.146 -0.041 19.9 V 0.70 -0.58 o 691 0.92 Yes Yes
2016CA136 O C H 2016-02-06.18186 1.000E-05 03:32:40.670 1.500E-01 0.500 F -0.361 0.413 +16° 06' 36.30" 1.000E-01 0.500 F 0.155 -0.129 19.8 V 0.70 0.06 o 691 0.87 Yes Yes
2014FM7 O C 2016-02-06.18365 1.000E-05 03:31:43.130 1.500E-01 0.500 F -0.423 -0.237 +15° 45' 59.20" 1.000E-01 0.500 F 0.146 -0.126 20.2 V 0.70 -0.28 o 691 0.54 Yes Yes
2016CA136 O C H 2016-02-06.18365 1.000E-05 03:32:41.660 1.500E-01 0.500 F -0.361 -0.250 +16° 06' 40.30" 1.000E-01 0.500 F 0.155 0.010 19.9 V 0.70 0.16 o 691 0.50 Yes Yes
2014FM7 O C 2016-02-06.18544 1.000E-05 03:31:43.410 1.500E-01 0.500 F -0.423 -0.163 +15° 46' 03.70" 1.000E-01 0.500 F 0.146 0.089 20.3 V 0.70 -0.18 o 691 0.37 Yes Yes
2016CA136 O C H 2016-02-06.18544 1.000E-05 03:32:42.680 1.500E-01 0.500 F -0.361 -0.480 +16° 06' 44.10" 1.000E-01 0.500 F 0.155 -0.049 19.9 V 0.70 0.16 o 691 0.97 Yes Yes
2007BG O C H 2016-02-06.19085 1.000E-05 02:37:43.500 1.500E-01 0.500 F -0.269 1.062 -07° 18' 57.60" 1.000E-01 0.500 F 0.320 -1.129 o 691 3.04 No No
2007BG O C H 2016-02-06.19333 1.000E-05 02:37:43.950 1.500E-01 0.500 F -0.269 0.240 -07° 18' 52.00" 1.000E-01 0.500 F 0.320 -0.882 o 691 1.86 Yes No
2007BG O C H 2016-02-06.19582 1.000E-05 02:37:44.420 1.500E-01 0.500 F -0.269 -0.318 -07° 18' 46.90" 1.000E-01 0.500 F 0.320 -1.156 o 691 2.42 Yes No
2016AO164 O C H 2016-02-06.20358 1.000E-05 04:24:51.760 1.500E-01 0.500 F -0.070 1.281 +02° 18' 00.60" 1.000E-01 0.500 F 0.242 0.100 o 691 2.58 Yes No
2016AO164 O C H 2016-02-06.20676 1.000E-05 04:24:51.680 1.500E-01 0.500 F -0.070 -0.006 +02° 18' 09.20" 1.000E-01 0.500 F 0.242 0.207 o 691 0.42 Yes No
2016AO164 O C H 2016-02-06.20994 1.000E-05 04:24:51.760 1.500E-01 0.500 F -0.070 1.098 +02° 18' 17.50" 1.000E-01 0.500 F 0.242 0.014 o 691 2.20 Yes No
2016CJ30 O C 2016-02-06.23799 1.000E-05 07:19:06.990 1.500E-01 0.500 F -0.018 0.040 +19° 31' 53.90" 1.000E-01 0.500 F 0.190 0.083 20.4 V 0.70 -0.20 o 691 0.19 Yes Yes
2016CJ30 O C 2016-02-06.24048 1.000E-05 07:19:07.410 1.500E-01 0.500 F -0.018 -0.655 +19° 31' 52.50" 1.000E-01 0.500 F 0.190 -0.242 20.2 V 0.70 -0.40 o 691 1.41 Yes Yes
2016CJ30 O C 2016-02-06.24298 1.000E-05 07:19:07.900 1.500E-01 0.500 F -0.018 -0.389 +19° 31' 51.50" 1.000E-01 0.500 F 0.190 -0.156 20.2 V 0.70 -0.40 o 691 0.84 Yes Yes
2016CU30 O C H 2016-02-06.27468 1.000E-05 08:37:42.220 1.500E-01 0.500 F 0.100 -0.417 +05° 01' 57.70" 1.000E-01 0.500 F 0.171 0.448 20.1 V 0.70 0.15 o 691 1.25 Yes Yes
2016CU30 O C H 2016-02-06.27647 1.000E-05 08:37:42.210 1.500E-01 0.500 F 0.100 -0.472 +05° 02' 07.00" 1.000E-01 0.500 F 0.171 -0.171 20.1 V 0.70 0.15 o 691 1.02 Yes Yes
2016CU30 O C H 2016-02-06.27826 1.000E-05 08:37:42.230 1.500E-01 0.500 F 0.100 -0.078 +05° 02' 17.00" 1.000E-01 0.500 F 0.171 -0.090 20.0 V 0.70 0.05 o 691 0.24 Yes Yes
2016AF65 O C H 2016-02-06.28214 1.000E-05 09:00:41.970 1.500E-01 0.500 F -0.025 -0.034 -01° 08' 05.90" 1.000E-01 0.500 F 0.020 -0.159 20.7 V 0.70 0.03 o 691 0.33 Yes Yes
2016AF65 O C H 2016-02-06.28532 1.000E-05 09:00:41.650 1.500E-01 0.500 F -0.025 -0.260 -01° 08' 08.50" 1.000E-01 0.500 F 0.020 -0.136 20.7 V 0.70 0.03 o 691 0.59 Yes Yes
2016AF65 O C H 2016-02-06.28850 1.000E-05 09:00:41.330 1.500E-01 0.500 F -0.025 -0.486 -01° 08' 11.30" 1.000E-01 0.500 F 0.020 -0.314 20.7 V 0.70 0.03 o 691 1.16 Yes Yes
2016CD136 O C H 2016-02-06.32317 1.000E-05 09:11:55.690 1.500E-01 0.500 F 0.146 1.932 +07° 13' 34.00" 1.000E-01 0.500 F 0.199 -0.466 o 691 3.87 No No
2016CD136 O C H 2016-02-06.32566 1.000E-05 09:11:56.380 1.500E-01 0.500 F 0.146 -1.485 +07° 13' 36.40" 1.000E-01 0.500 F 0.199 -0.792 o 691 3.29 No No
2016CD136 O C H 2016-02-06.32814 1.000E-05 09:11:57.330 1.500E-01 0.500 F 0.146 -0.973 +07° 13' 39.40" 1.000E-01 0.500 F 0.199 -0.503 o 691 2.24 Yes No
1996DH O C 2016-02-06.34313 1.000E-05 09:47:40.250 1.500E-01 0.500 F 0.106 -0.061 +05° 05' 13.00" 1.000E-01 0.500 F 0.231 -0.035 18.8 V 0.70 0.24 o 691 0.14 Yes Yes
1996DH O C 2016-02-06.34608 1.000E-05 09:47:39.920 1.500E-01 0.500 F 0.106 -0.184 +05° 05' 12.30" 1.000E-01 0.500 F 0.231 -0.156 19.0 V 0.70 0.44 o 691 0.48 Yes Yes
1996DH O C 2016-02-06.34902 1.000E-05 09:47:39.580 1.500E-01 0.500 F 0.106 -0.471 +05° 05' 11.80" 1.000E-01 0.500 F 0.231 -0.079 19.3 V 0.70 0.74 o 691 0.96 Yes Yes
2016CZ30 O C H 2016-02-06.37063 1.000E-05 10:37:56.910 1.500E-01 0.500 F 0.004 -1.803 +13° 57' 50.40" 1.000E-01 0.500 F 0.163 -2.839 o 691 6.43 No No
2016CZ30 O C H 2016-02-06.37219 1.000E-05 10:37:51.490 1.500E-01 0.500 F 0.004 -1.198 +13° 56' 23.90" 1.000E-01 0.500 F 0.163 -2.175 o 691 4.75 No No
2016CZ30 O C H 2016-02-06.37374 1.000E-05 10:37:46.060 1.500E-01 0.500 F 0.004 -1.291 +13° 54' 56.90" 1.000E-01 0.500 F 0.163 -2.585 o 691 5.53 No No
2010GE25 O C H 2016-02-06.37744 1.000E-05 10:52:55.870 1.500E-01 0.500 F 0.177 -0.243 +10° 37' 47.00" 1.000E-01 0.500 F 0.068 -0.033 19.4 V 0.70 0.17 o 691 0.49 Yes Yes
2010GE25 O C H 2016-02-06.37923 1.000E-05 10:52:55.720 1.500E-01 0.500 F 0.177 -0.367 +10° 37' 40.30" 1.000E-01 0.500 F 0.068 -0.130 19.4 V 0.70 0.17 o 691 0.78 Yes Yes
2010GE25 O C H 2016-02-06.38102 1.000E-05 10:52:55.580 1.500E-01 0.500 F 0.177 -0.344 +10° 37' 33.80" 1.000E-01 0.500 F 0.068 -0.027 19.4 V 0.70 0.17 o 691 0.69 Yes Yes
2016AJ193 O C H 2016-02-06.43050 1.000E-05 12:52:55.900 1.500E-01 0.500 F 0.117 -0.250 -14° 12' 36.80" 1.000E-01 0.500 F 0.297 -0.725 o 691 1.54 Yes No
2016AJ193 O C H 2016-02-06.43298 1.000E-05 12:52:55.550 1.500E-01 0.500 F 0.117 0.227 -14° 12' 38.30" 1.000E-01 0.500 F 0.297 -0.645 o 691 1.37 Yes No
2016AJ193 O C H 2016-02-06.43547 1.000E-05 12:52:55.170 1.500E-01 0.500 F 0.117 0.291 -14° 12' 40.10" 1.000E-01 0.500 F 0.297 -0.860 o 691 1.82 Yes No
2016AZ8 O C H 2016-02-06.44006 1.000E-05 12:23:36.190 1.500E-01 0.500 F 0.116 0.273 +19° 19' 47.00" 1.000E-01 0.500 F 0.281 -0.601 20.2 V 0.70 -0.06 o 691 1.33 Yes Yes
2016AZ8 O C H 2016-02-06.44254 1.000E-05 12:23:35.800 1.500E-01 0.500 F 0.116 -0.203 +19° 19' 51.10" 1.000E-01 0.500 F 0.281 -0.153 20.3 V 0.70 0.04 o 691 0.51 Yes Yes
2016AZ8 O C H 2016-02-06.44503 1.000E-05 12:23:35.460 1.500E-01 0.500 F 0.116 0.049 +19° 19' 54.70" 1.000E-01 0.500 F 0.281 -0.218 20.3 V 0.70 0.04 o 691 0.45 Yes Yes
1999VF22 O C H 2016-02-06.44887 1.000E-05 12:58:13.000 1.500E-01 0.500 F 0.238 1.161 +07° 15' 29.20" 1.000E-01 0.500 F 0.233 -0.540 o 691 2.60 Yes No
1999VF22 O C H 2016-02-06.45043 1.000E-05 12:58:13.620 1.500E-01 0.500 F 0.238 0.035 +07° 15' 27.70" 1.000E-01 0.500 F 0.233 -0.729 o 691 1.47 Yes No
1999VF22 O C H 2016-02-06.45199 1.000E-05 12:58:14.330 1.500E-01 0.500 F 0.238 0.248 +07° 15' 26.40" 1.000E-01 0.500 F 0.233 -0.717 o 691 1.53 Yes No
2016CC30 O C H 2016-02-06.47581 1.000E-05 14:19:38.900 1.500E-01 0.500 F 0.277 -0.203 +08° 19' 55.90" 1.000E-01 0.500 F 0.375 -0.690 17.4 V 0.70 -0.02 o 691 1.45 Yes Yes
2016CC30 O C H 2016-02-06.47736 1.000E-05 14:19:40.200 1.500E-01 0.500 F 0.277 0.704 +08° 20' 32.50" 1.000E-01 0.500 F 0.375 1.431 17.5 V 0.70 0.08 o 691 3.17 No Yes
2016CC30 O C H 2016-02-06.47892 1.000E-05 14:19:41.410 1.500E-01 0.500 F 0.277 0.160 +08° 21' 05.80" 1.000E-01 0.500 F 0.375 0.035 17.3 V 0.70 -0.12 o 691 0.33 Yes Yes
2004SV55 O C H 2016-02-06.49349 1.000E-05 14:44:41.730 1.500E-01 0.500 F 0.170 0.235 -15° 05' 19.90" 1.000E-01 0.500 F 0.014 -0.582 o 691 1.27 Yes No
2004SV55 O C H 2016-02-06.49528 1.000E-05 14:44:42.250 1.500E-01 0.500 F 0.170 0.355 -15° 05' 29.30" 1.000E-01 0.500 F 0.014 -0.427 o 691 1.12 Yes No
2004SV55 O C H 2016-02-06.49707 1.000E-05 14:44:42.730 1.500E-01 0.500 F 0.170 -0.106 -15° 05' 39.30" 1.000E-01 0.500 F 0.014 -0.871 o 691 1.78 Yes No
2016BC14 O C H 2016-02-06.50324 1.000E-05 15:09:33.550 1.500E-01 0.612 F 0.082 0.024 +15° 31' 18.70" 1.000E-01 0.612 F 0.245 0.099 20.0 V 0.70 0.13 o 691 0.17 Yes Yes
2016BC14 O C H 2016-02-06.50712 1.000E-05 15:09:33.770 1.500E-01 0.612 F 0.082 -0.221 +15° 31' 16.40" 1.000E-01 0.612 F 0.245 0.311 20.1 V 0.70 0.23 o 691 0.62 Yes Yes
2016BC14 O C H 2016-02-06.51099 1.000E-05 15:09:34.030 1.500E-01 0.612 F 0.082 0.131 +15° 31' 13.40" 1.000E-01 0.612 F 0.245 -0.176 20.1 V 0.70 0.23 o 691 0.36 Yes Yes
2016BC14 O C H 2016-02-06.51714 1.000E-05 15:09:34.450 1.500E-01 0.612 F 0.082 0.805 +15° 31' 08.90" 1.000E-01 0.612 F 0.245 -0.670 o 691 1.71 Yes No
2016BC14 O C H 2016-02-06.52102 1.000E-05 15:09:34.680 1.500E-01 0.612 F 0.082 0.734 +15° 31' 06.30" 1.000E-01 0.612 F 0.245 -0.735 o 691 1.70 Yes No
2016BC14 O C H 2016-02-06.52489 1.000E-05 15:09:34.900 1.500E-01 0.612 F 0.082 0.535 +15° 31' 03.90" 1.000E-01 0.612 F 0.245 -0.599 o 691 1.31 Yes No
2016CA32 O C H 2016-02-06.52975 1.000E-05 15:20:04.770 1.500E-01 0.500 F 0.216 0.500 +19° 38' 31.80" 1.000E-01 0.500 F 0.229 -0.266 o 691 1.14 Yes No
2016CA32 O C H 2016-02-06.53293 1.000E-05 15:20:04.610 1.500E-01 0.500 F 0.216 0.412 +19° 38' 37.30" 1.000E-01 0.500 F 0.229 -0.315 o 691 1.05 Yes No
2016CA32 O C H 2016-02-06.53611 1.000E-05 15:20:04.460 1.500E-01 0.500 F 0.216 0.468 +19° 38' 42.20" 1.000E-01 0.500 F 0.229 -0.962 o 691 2.16 Yes No
2008OS7 O C H 2016-02-07.14197 1.000E-05 03:57:10.770 1.500E-01 0.500 F -0.135 -0.297 +13° 30' 59.30" 1.000E-01 0.500 F 0.146 -1.144 o 691 2.39 Yes No
2008OS7 O C H 2016-02-07.14700 1.000E-05 03:57:10.510 1.500E-01 0.500 F -0.135 0.855 +13° 31' 02.50" 1.000E-01 0.500 F 0.146 -0.485 o 691 2.01 Yes No
2008OS7 O C H 2016-02-07.15203 1.000E-05 03:57:10.100 1.500E-01 0.500 F -0.135 -0.185 +13° 31' 06.60" 1.000E-01 0.500 F 0.146 1.076 o 691 2.20 Yes No
1996DH O C 2016-02-07.23849 1.000E-05 09:46:05.200 1.500E-01 0.500 F 0.087 -0.311 +05° 02' 20.30" 1.000E-01 0.500 F 0.215 -0.178 19.5 V 0.70 0.97 o 691 0.72 Yes Yes
1996DH O C 2016-02-07.24237 1.000E-05 09:46:04.750 1.500E-01 0.500 F 0.087 -0.681 +05° 02' 19.60" 1.000E-01 0.500 F 0.215 -0.154 19.7 V 0.70 1.17 o 691 1.40 Yes Yes
1996DH O C 2016-02-07.24624 1.000E-05 09:46:04.340 1.500E-01 0.500 F 0.087 -0.467 +05° 02' 18.70" 1.000E-01 0.500 F 0.215 -0.331 19.3 V 0.70 0.77 o 691 1.15 Yes Yes
2013CT82 O C H 2016-02-07.29645 1.000E-05 09:43:26.490 1.500E-01 0.500 F 0.130 -0.191 +11° 15' 35.10" 1.000E-01 0.500 F 0.209 -0.763 o 691 1.58 Yes No
2013CT82 O C H 2016-02-07.30033 1.000E-05 09:43:26.140 1.500E-01 0.500 F 0.130 -0.168 +11° 15' 36.80" 1.000E-01 0.500 F 0.209 -0.751 o 691 1.54 Yes No
2013CT82 O C H 2016-02-07.30420 1.000E-05 09:43:25.870 1.500E-01 0.500 F 0.130 1.020 +11° 15' 37.70" 1.000E-01 0.500 F 0.209 -1.534 o 691 3.68 No No
Anza O C 2016-02-07.30998 1.000E-05 09:58:02.080 1.500E-01 0.500 F 0.020 -0.171 +06° 54' 37.40" 1.000E-01 0.500 F 0.119 0.171 20.7 V 0.70 0.46 o 691 0.49 Yes Yes
Anza O C 2016-02-07.31339 1.000E-05 09:58:01.830 1.500E-01 0.500 F 0.020 -0.318 +06° 54' 38.70" 1.000E-01 0.500 F 0.119 0.145 20.6 V 0.70 0.36 o 691 0.71 Yes Yes
Anza O C 2016-02-07.31680 1.000E-05 09:58:01.610 1.500E-01 0.500 F 0.020 -0.018 +06° 54' 40.00" 1.000E-01 0.500 F 0.119 0.120 20.7 V 0.70 0.46 o 691 0.25 Yes Yes
2000QN130 O C H 2016-02-07.32224 1.000E-05 09:57:35.170 1.500E-01 0.500 F -0.014 0.338 +15° 33' 36.00" 1.000E-01 0.500 F 0.347 -0.620 21.3 V 0.70 0.96 o 691 1.41 Yes Yes
2000QN130 O C H 2016-02-07.32612 1.000E-05 09:57:34.830 1.500E-01 0.500 F -0.014 -0.294 +15° 33' 38.60" 1.000E-01 0.500 F 0.347 0.221 20.9 V 0.70 0.56 o 691 0.74 Yes Yes
2000QN130 O C H 2016-02-07.32999 1.000E-05 09:57:34.570 1.500E-01 0.500 F -0.014 0.218 +15° 33' 39.60" 1.000E-01 0.500 F 0.347 -0.532 21.1 V 0.70 0.76 o 691 1.15 Yes Yes
2006CW O C H 2016-02-07.33567 1.000E-05 10:34:17.840 1.500E-01 0.500 F 0.194 0.895 +07° 41' 44.90" 1.000E-01 0.500 F 0.224 -0.719 o 691 2.31 Yes No
2006CW O C H 2016-02-07.33885 1.000E-05 10:34:18.110 1.500E-01 0.500 F 0.194 -0.328 +07° 41' 47.80" 1.000E-01 0.500 F 0.224 -0.337 o 691 0.95 Yes No
2006CW O C H 2016-02-07.34203 1.000E-05 10:34:18.510 1.500E-01 0.500 F 0.194 0.384 +07° 41' 50.30" 1.000E-01 0.500 F 0.224 -0.355 o 691 1.05 Yes No
2003GA O C H 2016-02-07.36419 1.000E-05 10:17:29.720 1.500E-01 0.500 F 0.174 -0.051 -00° 32' 44.80" 1.000E-01 0.500 F 0.047 -0.357 o 691 0.72 Yes No
2003GA O C H 2016-02-07.36807 1.000E-05 10:17:29.430 1.500E-01 0.500 F 0.174 0.329 -00° 32' 43.70" 1.000E-01 0.500 F 0.047 -0.548 o 691 1.28 Yes No
2003GA O C H 2016-02-07.37194 1.000E-05 10:17:29.120 1.500E-01 0.500 F 0.174 0.397 -00° 32' 42.80" 1.000E-01 0.500 F 0.047 -0.936 o 691 2.04 Yes No
2016AJ193 O C H 2016-02-07.39458 1.000E-05 12:50:30.050 1.500E-01 0.500 F 0.030 0.235 -14° 22' 31.60" 1.000E-01 0.500 F 0.228 -0.548 o 691 1.20 Yes No
2016AJ193 O C H 2016-02-07.39707 1.000E-05 12:50:29.670 1.500E-01 0.500 F 0.030 0.381 -14° 22' 33.60" 1.000E-01 0.500 F 0.228 -1.035 o 691 2.21 Yes No
2016AJ193 O C H 2016-02-07.39955 1.000E-05 12:50:29.260 1.500E-01 0.500 F 0.030 0.069 -14° 22' 35.10" 1.000E-01 0.500 F 0.228 -1.029 o 691 2.07 Yes No
2007DM41 O C H 2016-02-07.40516 1.000E-05 12:36:03.170 1.500E-01 0.500 F 0.233 0.789 +00° 43' 37.80" 1.000E-01 0.500 F 0.272 -1.451 o 691 3.29 No No
2007DM41 O C H 2016-02-07.40974 1.000E-05 12:36:03.890 1.500E-01 0.500 F 0.233 1.925 +00° 43' 33.80" 1.000E-01 0.500 F 0.272 -1.901 o 691 5.39 No No
2007DM41 O C H 2016-02-07.41430 1.000E-05 12:36:04.440 1.500E-01 0.500 F 0.233 0.557 +00° 43' 31.80" 1.000E-01 0.500 F 0.272 -0.366 o 691 1.34 Yes No
2015PD O C H 2016-02-07.42055 1.000E-05 12:27:36.750 1.500E-01 0.500 F 0.474 0.927 -29° 34' 36.60" 1.000E-01 0.500 F 0.212 -0.779 o 691 2.45 Yes No
2015PD O C H 2016-02-07.42419 1.000E-05 12:27:36.360 1.500E-01 0.500 F 0.474 0.596 -29° 34' 36.60" 1.000E-01 0.500 F 0.212 -1.119 o 691 2.56 Yes No
2015PD O C H 2016-02-07.42783 1.000E-05 12:27:36.010 1.500E-01 0.500 F 0.474 0.789 -29° 34' 36.10" 1.000E-01 0.500 F 0.212 -0.962 o 691 2.51 Yes No
1999VF22 O C H 2016-02-07.43272 1.000E-05 13:06:14.700 1.500E-01 0.500 F 0.184 0.092 +07° 00' 34.80" 1.000E-01 0.500 F 0.239 0.149 19.8 V 0.70 0.51 o 691 0.35 Yes Yes
1999VF22 O C H 2016-02-07.43451 1.000E-05 13:06:15.620 1.500E-01 0.500 F 0.184 0.307 +07° 00' 32.40" 1.000E-01 0.500 F 0.239 -0.509 19.7 V 0.70 0.41 o 691 1.21 Yes Yes
1999VF22 O C H 2016-02-07.43630 1.000E-05 13:06:16.520 1.500E-01 0.500 F 0.184 0.222 +07° 00' 31.20" 1.000E-01 0.500 F 0.239 0.033 19.9 V 0.70 0.61 o 691 0.45 Yes Yes
2004SV55 O C H 2016-02-07.44094 1.000E-05 14:49:25.880 1.500E-01 0.500 F 0.082 0.145 -16° 31' 16.60" 1.000E-01 0.500 F 0.047 -0.289 19.4 V 0.70 0.50 o 691 0.66 Yes Yes
2004SV55 O C H 2016-02-07.44274 1.000E-05 14:49:26.390 1.500E-01 0.500 F 0.082 -0.358 -16° 31' 26.50" 1.000E-01 0.500 F 0.047 -0.156 19.3 V 0.70 0.40 o 691 0.79 Yes Yes
2004SV55 O C H 2016-02-07.44453 1.000E-05 14:49:26.940 1.500E-01 0.500 F 0.082 -0.243 -16° 31' 36.40" 1.000E-01 0.500 F 0.047 -0.078 19.2 V 0.70 0.30 o 691 0.51 Yes Yes
2000ED14 O C 2016-02-07.45044 1.000E-05 12:59:00.490 1.500E-01 0.500 F 0.101 0.100 +23° 34' 12.50" 1.000E-01 0.500 F 0.303 0.113 20.9 V 0.70 -0.10 o 691 0.30 Yes Yes
2000ED14 O C 2016-02-07.45524 1.000E-05 12:59:00.210 1.500E-01 0.500 F 0.101 -0.535 +23° 34' 20.50" 1.000E-01 0.500 F 0.303 0.786 21.3 V 0.70 0.30 o 691 1.91 Yes Yes
2000ED14 O C 2016-02-07.46004 1.000E-05 12:59:00.050 1.500E-01 0.500 F 0.101 0.483 +23° 34' 27.30" 1.000E-01 0.500 F 0.303 0.265 21.4 V 0.70 0.40 o 691 1.11 Yes Yes
2016BC14 O C H 2016-02-07.49431 1.000E-05 15:10:50.970 1.500E-01 0.500 F 0.130 -0.182 +15° 20' 03.80" 1.000E-01 0.500 F 0.146 -0.532 20.6 V 0.70 0.78 o 691 1.13 Yes Yes
2016BC14 O C H 2016-02-07.49819 1.000E-05 15:10:51.260 1.500E-01 0.500 F 0.130 0.589 +15° 20' 01.60" 1.000E-01 0.500 F 0.146 -0.178 20.4 V 0.70 0.58 o 691 1.23 Yes Yes
2016BC14 O C H 2016-02-07.50206 1.000E-05 15:10:51.450 1.500E-01 0.500 F 0.130 -0.068 +15° 19' 59.50" 1.000E-01 0.500 F 0.146 0.275 20.2 V 0.70 0.38 o 691 0.57 Yes Yes
1999VF22 O C H 2016-02-08.49567 1.000E-05 13:16:07.970 1.500E-01 0.500 F 0.184 -0.004 +06° 41' 37.60" 1.000E-01 0.500 F 0.308 -0.263 19.6 V 0.70 0.45 o 691 0.53 Yes Yes
1999VF22 O C H 2016-02-08.49746 1.000E-05 13:16:09.010 1.500E-01 0.500 F 0.184 -0.079 +06° 41' 35.60" 1.000E-01 0.500 F 0.308 -0.169 19.5 V 0.70 0.35 o 691 0.37 Yes Yes
1999VF22 O C H 2016-02-08.49925 1.000E-05 13:16:10.060 1.500E-01 0.500 F 0.184 -0.009 +06° 41' 33.50" 1.000E-01 0.500 F 0.308 -0.173 19.7 V 0.70 0.55 o 691 0.35 Yes Yes
2008VQ4 O C 2016-02-09.10887 1.000E-05 03:42:04.450 1.500E-01 0.500 F -0.302 -0.588 +05° 23' 07.40" 1.000E-01 0.500 F 0.270 0.094 20.5 V 0.70 -0.10 o 691 1.22 Yes Yes
2008VQ4 O C 2016-02-09.11390 1.000E-05 03:42:05.250 1.500E-01 0.500 F -0.302 -1.038 +05° 23' 06.00" 1.000E-01 0.500 F 0.270 0.077 20.6 V 0.70 0.00 o 691 2.12 Yes Yes

[1-200] [201-400] [401-600] [601-800] [801-1000] [1001-1200] [1201-1400] [1401-1600] [1601-1800] [1801-2000] [2001-2200] [2201-2400] [2401-2600] [2601-2800] [2801-3000] [3001-3200] [3201-3400] [3401-3600] [3601-3800] [3801-4000] [4001-4200] [4201-4400] [4401-4600] [4601-4800] [4801-5000] [5001-5200] [5201-5400] [5401-5600] [5601-5800] [5801-6000] [6001-6200] [6201-6400] [6401-6600] [6601-6800] [6801-7000] [7001-7200] [7201-7400] [7401-7600] [7601-7800] [7801-8000] [8001-8200] [8201-8400] [8401-8600] [8601-8800] [8801-9000] [9001-9200] [9201-9400] [9401-9600] [9601-9800] [9801-10000] [10001-10200] [10201-10400] [10401-10600] [10601-10800] [10801-11000] [11001-11200] [11201-11400] [11401-11600] [11601-11800] [11801-12000] [12001-12200] [12201-12400] [12401-12600] [12601-12800] [12801-13000] [13001-13200] [13201-13400] [13401-13600] [13601-13800] [13801-14000] [14001-14200] [14201-14400] [14401-14600] [14601-14800] [14801-15000] [15001-15200] [15201-15400] [15401-15600] [15601-15800] [15801-16000] [16001-16200] [16201-16400] [16401-16600] [16601-16800] [16801-17000] [17001-17200] [17201-17400] [17401-17600] [17601-17800] [17801-18000] [18001-18200] [18201-18400] [18401-18600] [18601-18800] [18801-19000] [19001-19200] [19201-19400] [19401-19600] [19601-19800] [19801-20000] [20001-20200] [20201-20400] [20401-20600] [20601-20800] [20801-21000] [21001-21200] [21201-21400] [21401-21600] [21601-21800] [21801-22000] [22001-22200] [22201-22400] [22401-22600] [22601-22800] [22801-23000] [23001-23200] [23201-23400] [23401-23600] [23601-23800] [23801-24000] [24001-24200] [24201-24400] [24401-24600] [24601-24800] [24801-25000] [25001-25200] [25201-25400] [25401-25600] [25601-25800] [25801-26000] [26001-26200] [26201-26400] [26401-26600] [26601-26800] [26801-27000] [27001-27200] [27201-27400] [27401-27600] [27601-27800] [27801-28000] [28001-28200] [28201-28400] [28401-28600] [28601-28800] [28801-29000] [29001-29200] [29201-29400] [29401-29600] [29601-29800] [29801-30000] [30001-30200] [30201-30400] [30401-30600] [30601-30800] [30801-31000] [31001-31200] [31201-31400] [31401-31600] [31601-31800] [31801-32000] [32001-32200] [32201-32400] [32401-32600] [32601-32800] [32801-33000] [33001-33200] [33201-33400] [33401-33600] [33601-33800] [33801-34000] [34001-34200] [34201-34400] [34401-34600] [34601-34800] [34801-35000] [35001-35200] [35201-35400] [35401-35600] [35601-35800] [35801-36000] [36001-36200] [36201-36400] [36401-36600] [36601-36800] [36801-37000] [37001-37200] [37201-37400] [37401-37600] [37601-37800] [37801-38000] [38001-38200] [38201-38400] [38401-38600] [38601-38800] [38801-39000] [39001-39200] [39201-39400] [39401-39600] [39601-39800] [39801-40000] [40001-40200] [40201-40400] [40401-40600] [40601-40800] [40801-41000] [41001-41200] [41201-41400] [41401-41600] [41601-41800] [41801-42000] [42001-42200] [42201-42400] [42401-42600] [42601-42800] [42801-43000] [43001-43200] [43201-43400] [43401-43600] [43601-43800] [43801-44000] [44001-44200] [44201-44400] [44401-44600] [44601-44800] [44801-45000] [45001-45200] [45201-45400] [45401-45600] [45601-45800] [45801-46000] [46001-46200] [46201-46400] [46401-46600] [46601-46800] [46801-47000] [47001-47200] [47201-47400] [47401-47600] [47601-47800] [47801-48000] [48001-48200] [48201-48400] [48401-48600] [48601-48800] [48801-49000] [49001-49200] [49201-49400] [49401-49600] [49601-49800] [49801-50000] [50001-50200] [50201-50388]